createdAt,value
2018-06-19T00:02:18.457Z,7.47
2018-06-19T00:04:47.743Z,7.23
2018-06-19T00:07:16.786Z,7.17
2018-06-19T00:09:46.787Z,6.90
2018-06-19T00:12:16.075Z,8.13
2018-06-19T00:14:45.113Z,7.30
2018-06-19T00:17:14.043Z,7.50
2018-06-19T00:19:47.040Z,6.60
2018-06-19T00:22:16.443Z,9.53
2018-06-19T00:24:45.528Z,8.30
2018-06-19T00:27:14.534Z,6.70
2018-06-19T00:32:26.785Z,8.33
2018-06-19T00:34:57.138Z,8.73
2018-06-19T00:37:26.902Z,7.77
2018-06-19T00:39:55.978Z,9.33
2018-06-19T00:42:25.229Z,6.70
2018-06-19T00:44:54.876Z,6.40
2018-06-19T00:47:23.795Z,7.17
2018-06-19T00:49:52.957Z,7.23
2018-06-19T00:52:22.241Z,8.27
2018-06-19T00:54:51.886Z,6.57
2018-06-19T00:57:20.927Z,8.03
2018-06-19T00:59:49.982Z,7.47
2018-06-19T01:02:19.133Z,7.43
2018-06-19T01:04:48.296Z,6.87
2018-06-19T01:07:19.739Z,6.57
2018-06-19T01:09:48.903Z,7.70
2018-06-19T01:12:17.721Z,6.07
2018-06-19T01:14:46.871Z,6.00
2018-06-19T01:17:16.208Z,6.50
2018-06-19T01:19:45.676Z,8.87
2018-06-19T01:22:14.958Z,6.40
2018-06-19T01:24:44.362Z,7.83
2018-06-19T01:27:15.569Z,8.87
2018-06-19T01:29:44.970Z,6.77
2018-06-19T01:32:14.372Z,8.53
2018-06-19T01:34:43.416Z,6.93
2018-06-19T01:37:12.699Z,8.83
2018-06-19T01:39:42.940Z,7.17
2018-06-19T01:42:12.106Z,7.63
2018-06-19T01:44:41.151Z,6.83
2018-06-19T01:47:10.669Z,7.83
2018-06-19T01:49:40.314Z,8.13
2018-06-19T01:52:09.725Z,6.50
2018-06-19T01:54:40.449Z,7.43
2018-06-19T01:57:09.601Z,8.60
2018-06-19T01:59:38.766Z,7.77
2018-06-19T02:02:07.580Z,7.80
2018-06-19T02:04:37.098Z,7.83
2018-06-19T02:07:06.144Z,7.83
2018-06-19T02:09:35.308Z,8.80
2018-06-19T02:12:04.583Z,8.13
2018-06-19T02:14:33.745Z,9.43
2018-06-19T02:17:03.148Z,10.23
2018-06-19T02:19:32.208Z,10.37
2018-06-19T02:22:03.154Z,8.47
2018-06-19T02:24:32.317Z,8.57
2018-06-19T02:27:03.285Z,9.07
2018-06-19T02:29:32.452Z,9.13
2018-06-19T02:32:03.886Z,8.60
2018-06-19T02:34:33.170Z,8.83
2018-06-19T02:37:02.462Z,8.47
2018-06-19T02:39:32.697Z,8.17
2018-06-19T02:42:01.862Z,8.47
2018-06-19T02:44:30.951Z,7.53
2018-06-19T02:47:00.185Z,7.10
2018-06-19T02:49:29.355Z,7.17
2018-06-19T02:51:58.870Z,8.83
2018-06-19T02:54:28.874Z,7.60
2018-06-19T02:56:58.519Z,6.93
2018-06-19T02:59:27.800Z,7.13
2018-06-19T03:01:58.165Z,7.93
2018-06-19T03:04:27.806Z,9.27
2018-06-19T03:06:57.211Z,9.13
2018-06-19T03:09:26.373Z,8.53
2018-06-19T03:11:56.384Z,7.63
2018-06-19T03:14:25.299Z,7.83
2018-06-19T03:16:54.822Z,8.20
2018-06-19T03:19:25.549Z,7.47
2018-06-19T03:21:54.475Z,7.00
2018-06-19T03:24:24.712Z,6.70
2018-06-19T03:26:54.115Z,6.30
2018-06-19T03:29:23.283Z,7.97
2018-06-19T03:31:52.704Z,7.23
2018-06-19T03:34:21.484Z,6.97
2018-06-19T03:36:50.415Z,6.23
2018-06-19T03:39:20.052Z,6.73
2018-06-19T03:41:49.335Z,7.30
2018-06-19T03:44:18.383Z,8.37
2018-06-19T03:46:47.470Z,8.67
2018-06-19T03:49:16.826Z,7.17
2018-06-19T03:51:46.106Z,6.90
2018-06-19T03:54:15.510Z,7.40
2018-06-19T03:56:44.689Z,7.30
2018-06-19T03:59:13.596Z,7.47
2018-06-19T04:01:42.998Z,8.87
2018-06-19T04:04:11.928Z,7.23
2018-06-19T04:06:40.846Z,6.90
2018-06-19T04:09:09.888Z,6.67
2018-06-19T04:11:39.053Z,7.43
2018-06-19T04:14:09.175Z,7.27
2018-06-19T04:16:38.580Z,7.13
2018-06-19T04:19:07.862Z,7.70
2018-06-19T04:21:36.792Z,6.93
2018-06-19T04:24:06.081Z,6.63
2018-06-19T04:26:35.470Z,7.37
2018-06-19T04:29:04.399Z,5.90
2018-06-19T04:31:34.044Z,6.73
2018-06-19T04:34:03.206Z,6.57
2018-06-19T04:36:33.083Z,7.57
2018-06-19T04:39:03.687Z,5.10
2018-06-19T04:41:33.212Z,6.13
2018-06-19T04:44:04.417Z,6.63
2018-06-19T04:46:33.816Z,7.17
2018-06-19T04:49:03.820Z,5.37
2018-06-19T04:51:32.990Z,5.80
2018-06-19T04:54:02.146Z,5.03
2018-06-19T04:56:31.429Z,4.50
2018-06-19T04:59:00.710Z,4.20
2018-06-19T05:01:30.354Z,4.67
2018-06-19T05:03:59.517Z,5.93
2018-06-19T05:06:28.806Z,8.07
2018-06-19T05:08:58.570Z,6.63
2018-06-19T05:11:27.966Z,4.70
2018-06-19T05:13:57.135Z,5.17
2018-06-19T05:16:26.655Z,6.13
2018-06-19T05:18:55.823Z,5.40
2018-06-19T05:21:25.339Z,4.80
2018-06-19T05:23:55.463Z,5.13
2018-06-19T05:26:24.393Z,6.33
2018-06-19T05:28:55.109Z,5.00
2018-06-19T05:31:25.592Z,6.43
2018-06-19T05:33:54.523Z,5.37
2018-06-19T05:36:23.918Z,4.50
2018-06-19T05:38:54.402Z,5.27
2018-06-19T05:41:24.045Z,5.27
2018-06-19T05:43:53.331Z,4.83
2018-06-19T05:46:22.548Z,5.23
2018-06-19T05:48:51.776Z,4.90
2018-06-19T05:51:20.822Z,4.63
2018-06-19T05:53:50.700Z,4.90
2018-06-19T05:56:19.872Z,6.90
2018-06-19T05:58:48.908Z,4.80
2018-06-19T06:01:18.190Z,6.50
2018-06-19T06:03:47.353Z,5.10
2018-06-19T06:06:16.279Z,4.90
2018-06-19T06:08:45.801Z,4.87
2018-06-19T06:11:15.595Z,4.37
2018-06-19T06:13:45.087Z,5.17
2018-06-19T06:16:13.910Z,4.13
2018-06-19T06:18:43.053Z,5.10
2018-06-19T06:21:12.337Z,5.17
2018-06-19T06:23:41.303Z,5.73
2018-06-19T06:26:10.667Z,4.30
2018-06-19T06:28:39.706Z,5.63
2018-06-19T06:31:08.898Z,4.47
2018-06-19T06:33:37.911Z,4.77
2018-06-19T06:36:08.395Z,6.53
2018-06-19T06:38:38.277Z,4.97
2018-06-19T06:41:07.562Z,4.43
2018-06-19T06:43:36.724Z,6.60
2018-06-19T06:46:06.007Z,4.70
2018-06-19T06:48:36.371Z,3.50
2018-06-19T06:51:05.657Z,4.60
2018-06-19T06:53:34.695Z,3.93
2018-06-19T06:56:04.219Z,2.60
2018-06-19T06:58:33.151Z,4.93
2018-06-19T07:01:02.427Z,6.83
2018-06-19T07:03:32.309Z,2.83
2018-06-19T07:06:02.432Z,5.30
2018-06-19T07:08:31.835Z,3.80
2018-06-19T07:11:01.003Z,4.13
2018-06-19T07:13:31.030Z,5.53
2018-06-19T07:16:00.804Z,3.57
2018-06-19T07:18:30.427Z,3.80
2018-06-19T07:20:59.690Z,3.10
2018-06-19T07:23:28.861Z,4.33
2018-06-19T07:25:58.299Z,6.67
2018-06-19T07:28:27.187Z,3.27
2018-06-19T07:30:56.467Z,3.10
2018-06-19T07:33:25.867Z,2.73
2018-06-19T07:35:55.149Z,3.07
2018-06-19T07:38:24.590Z,4.53
2018-06-19T07:40:53.715Z,4.30
2018-06-19T07:43:22.766Z,5.27
2018-06-19T07:45:52.041Z,3.63
2018-06-19T07:48:21.085Z,4.10
2018-06-19T07:50:50.015Z,4.40
2018-06-19T07:53:19.051Z,4.30
2018-06-19T07:55:48.215Z,5.03
2018-06-19T07:58:17.264Z,4.13
2018-06-19T08:00:46.061Z,3.40
2018-06-19T08:03:15.234Z,4.20
2018-06-19T08:05:44.036Z,3.57
2018-06-19T08:08:13.549Z,3.50
2018-06-19T08:10:43.552Z,5.27
2018-06-19T08:13:12.837Z,3.43
2018-06-19T08:15:41.879Z,2.90
2018-06-19T08:18:10.803Z,5.13
2018-06-19T08:20:40.087Z,3.87
2018-06-19T08:23:09.250Z,3.50
2018-06-19T08:25:38.533Z,3.83
2018-06-19T08:28:08.775Z,5.30
2018-06-19T08:30:38.103Z,3.10
2018-06-19T08:33:07.102Z,3.33
2018-06-19T08:35:36.027Z,3.70
2018-06-19T08:38:05.187Z,3.50
2018-06-19T08:40:34.474Z,3.50
2018-06-19T08:43:03.405Z,2.83
2018-06-19T08:45:33.518Z,4.97
2018-06-19T08:48:02.495Z,2.83
2018-06-19T08:50:31.486Z,2.20
2018-06-19T08:53:00.581Z,4.00
2018-06-19T08:55:29.809Z,3.33
2018-06-19T08:57:58.672Z,3.10
2018-06-19T09:00:28.135Z,2.73
2018-06-19T09:02:56.965Z,4.93
2018-06-19T09:05:26.267Z,3.93
2018-06-19T09:07:55.512Z,3.40
2018-06-19T09:10:24.436Z,4.17
2018-06-19T09:12:53.832Z,4.47
2018-06-19T09:15:22.880Z,3.33
2018-06-19T09:17:51.679Z,3.90
2018-06-19T09:20:21.218Z,4.20
2018-06-19T09:22:50.248Z,3.00
2018-06-19T09:25:18.736Z,3.67
2018-06-19T09:27:47.366Z,4.13
2018-06-19T09:30:15.975Z,3.40
2018-06-19T09:32:45.076Z,3.57
2018-06-19T09:35:13.617Z,3.23
2018-06-19T09:37:42.145Z,3.37
2018-06-19T09:40:10.670Z,3.43
2018-06-19T09:42:39.335Z,4.10
2018-06-19T09:45:07.884Z,3.23
2018-06-19T09:47:36.406Z,3.67
2018-06-19T09:50:05.389Z,5.20
2018-06-19T09:52:33.999Z,4.20
2018-06-19T09:55:02.633Z,2.63
2018-06-19T09:57:31.274Z,3.67
2018-06-19T09:59:59.907Z,3.13
2018-06-19T10:02:28.786Z,7.00
2018-06-19T10:04:57.338Z,2.93
2018-06-19T10:07:25.909Z,2.90
2018-06-19T10:09:54.452Z,2.93
2018-06-19T10:12:23.069Z,2.83
2018-06-19T10:14:51.599Z,3.20
2018-06-19T10:17:20.241Z,2.93
2018-06-19T10:19:48.806Z,2.10
2018-06-19T10:22:17.410Z,2.93
2018-06-19T10:24:45.968Z,1.60
2018-06-19T10:27:14.498Z,2.00
2018-06-19T10:29:43.050Z,2.03
2018-06-19T10:32:11.573Z,2.13
2018-06-19T10:34:40.090Z,3.80
2018-06-19T10:37:08.636Z,1.50
2018-06-19T10:39:37.196Z,2.43
2018-06-19T10:42:05.717Z,2.90
2018-06-19T10:44:34.234Z,2.83
2018-06-19T10:47:02.807Z,2.30
2018-06-19T10:49:31.313Z,3.10
2018-06-19T10:51:59.817Z,1.93
2018-06-19T10:54:28.456Z,1.93
2018-06-19T10:56:56.961Z,2.30
2018-06-19T10:59:25.482Z,1.77
2018-06-19T11:01:54.037Z,2.70
2018-06-19T11:04:22.545Z,2.00
2018-06-19T11:06:51.044Z,22.80
2018-06-19T11:09:19.576Z,7.00
2018-06-19T11:11:48.081Z,17.27
2018-06-19T11:14:16.597Z,5.67
2018-06-19T11:16:45.187Z,2.67
2018-06-19T11:19:13.737Z,3.97
2018-06-19T11:21:42.229Z,2.53
2018-06-19T11:24:10.739Z,3.90
2018-06-19T11:26:39.230Z,2.43
2018-06-19T11:29:07.806Z,1.43
2018-06-19T11:31:36.271Z,2.40
2018-06-19T11:34:04.797Z,2.07
2018-06-19T11:36:33.337Z,3.40
2018-06-19T11:39:01.850Z,1.70
2018-06-19T11:41:30.356Z,2.23
2018-06-19T11:43:58.894Z,2.40
2018-06-19T11:46:27.384Z,1.93
2018-06-19T11:48:55.944Z,2.87
2018-06-19T11:51:24.540Z,1.60
2018-06-19T11:53:53.007Z,2.07
2018-06-19T11:56:21.506Z,3.17
2018-06-19T11:58:51.773Z,4.67
2018-06-19T12:01:20.293Z,2.50
2018-06-19T12:03:49.593Z,1.53
2018-06-19T12:06:18.467Z,2.13
2018-06-19T12:08:46.950Z,2.83
2018-06-19T12:11:15.442Z,2.67
2018-06-19T12:13:44.004Z,2.83
2018-06-19T12:16:12.493Z,2.73
2018-06-19T12:18:40.973Z,2.00
2018-06-19T12:21:09.501Z,2.07
2018-06-19T12:23:38.041Z,2.20
2018-06-19T12:26:06.577Z,1.83
2018-06-19T12:28:35.110Z,3.27
2018-06-19T12:31:03.602Z,2.37
2018-06-19T12:33:32.105Z,2.37
2018-06-19T12:36:00.589Z,1.97
2018-06-19T12:38:29.073Z,2.80
2018-06-19T12:40:57.597Z,3.57
2018-06-19T12:43:26.080Z,1.80
2018-06-19T12:45:54.566Z,1.33
2018-06-19T12:48:23.104Z,2.17
2018-06-19T12:52:03.488Z,1.83
2018-06-19T12:54:42.863Z,2.27
2018-06-19T12:57:11.361Z,1.93
2018-06-19T12:59:39.853Z,3.60
2018-06-19T13:02:08.360Z,2.80
2018-06-19T13:04:48.132Z,2.63
2018-06-19T13:07:16.642Z,2.30
2018-06-19T13:09:45.130Z,2.30
2018-06-19T13:12:24.893Z,2.97
2018-06-19T13:14:53.375Z,2.03
2018-06-19T13:17:33.096Z,2.40
2018-06-19T13:20:12.901Z,2.67
2018-06-19T13:22:41.450Z,3.97
2018-06-19T13:25:09.972Z,1.60
2018-06-19T13:27:38.461Z,2.30
2018-06-19T13:30:18.169Z,3.03
2018-06-19T13:32:46.661Z,2.73
2018-06-19T13:35:15.153Z,3.50
2018-06-19T13:37:43.693Z,2.00
2018-06-19T13:41:23.377Z,3.20
2018-06-19T13:44:06.005Z,2.93
2018-06-19T13:46:34.526Z,2.73
2018-06-19T13:49:03.014Z,2.90
2018-06-19T13:51:31.522Z,2.03
2018-06-19T13:54:00.044Z,1.73
2018-06-19T13:57:46.236Z,2.50
2018-06-19T14:00:17.458Z,2.40
2018-06-19T14:02:45.961Z,2.63
2018-06-19T14:05:15.641Z,1.80
2018-06-19T14:08:18.661Z,3.03
2018-06-19T14:10:58.416Z,2.03
2018-06-19T14:13:26.925Z,2.30
2018-06-19T14:15:55.413Z,3.07
2018-06-19T14:18:24.832Z,2.43
2018-06-19T14:20:53.346Z,4.23
2018-06-19T14:23:21.945Z,2.60
2018-06-19T14:25:50.435Z,2.90
2018-06-19T14:28:18.969Z,2.33
2018-06-19T14:30:47.463Z,2.60
2018-06-19T14:33:15.954Z,2.13
2018-06-19T14:35:44.485Z,2.30
2018-06-19T14:38:12.979Z,1.67
2018-06-19T14:40:41.473Z,4.03
2018-06-19T14:43:10.010Z,2.60
2018-06-19T14:45:38.509Z,2.00
2018-06-19T14:48:07.161Z,2.83
2018-06-19T14:50:35.649Z,3.67
2018-06-19T14:53:04.143Z,3.33
2018-06-19T14:55:32.702Z,2.73
2018-06-19T14:58:01.189Z,3.73
2018-06-19T15:00:29.687Z,3.97
2018-06-19T15:02:58.189Z,5.20
2018-06-19T15:05:26.680Z,4.00
2018-06-19T15:07:55.585Z,2.30
2018-06-19T15:10:24.628Z,3.60
2018-06-19T15:12:53.121Z,2.60
2018-06-19T15:15:21.613Z,2.30
2018-06-19T15:17:50.173Z,2.47
2018-06-19T15:20:18.836Z,5.33
2018-06-19T15:22:47.358Z,3.60
2018-06-19T15:25:15.873Z,2.63
2018-06-19T15:27:44.353Z,3.23
2018-06-19T15:30:12.861Z,2.73
2018-06-19T15:32:41.375Z,4.87
2018-06-19T15:35:09.938Z,3.00
2018-06-19T15:37:38.444Z,3.30
2018-06-19T15:40:07.017Z,3.97
2018-06-19T15:42:35.505Z,4.37
2018-06-19T15:45:04.129Z,5.73
2018-06-19T15:47:32.654Z,4.43
2018-06-19T15:50:01.197Z,2.70
2018-06-19T15:52:29.885Z,4.33
2018-06-19T15:54:58.553Z,4.40
2018-06-19T15:57:27.196Z,3.87
2018-06-19T15:59:55.658Z,6.23
2018-06-19T16:02:24.185Z,2.93
2018-06-19T16:04:52.714Z,6.23
2018-06-19T16:07:21.245Z,4.57
2018-06-19T16:09:49.865Z,4.10
2018-06-19T16:12:18.397Z,3.63
2018-06-19T16:14:47.001Z,2.80
2018-06-19T16:17:15.517Z,3.70
2018-06-19T16:19:44.077Z,3.57
2018-06-19T16:22:12.586Z,4.00
2018-06-19T16:24:41.102Z,3.53
2018-06-19T16:27:09.589Z,1.97
2018-06-19T16:29:38.074Z,3.43
2018-06-19T16:32:06.585Z,3.20
2018-06-19T16:34:35.077Z,4.77
2018-06-19T16:37:03.574Z,3.83
2018-06-19T16:39:32.090Z,4.53
2018-06-19T16:42:00.585Z,2.97
2018-06-19T16:44:29.124Z,3.97
2018-06-19T16:46:57.644Z,2.83
2018-06-19T16:49:26.129Z,2.93
2018-06-19T16:51:54.613Z,3.07
2018-06-19T16:54:23.133Z,2.63
2018-06-19T16:56:51.616Z,3.90
2018-06-19T16:59:20.124Z,2.03
2018-06-19T17:01:48.613Z,2.03
2018-06-19T17:04:17.117Z,3.70
2018-06-19T17:06:45.597Z,2.10
2018-06-19T17:09:14.082Z,2.77
2018-06-19T17:11:42.606Z,3.17
2018-06-19T17:14:11.143Z,1.93
2018-06-19T17:16:39.645Z,2.83
2018-06-19T17:19:08.256Z,2.17
2018-06-19T17:21:36.744Z,2.97
2018-06-19T17:24:05.226Z,3.43
2018-06-19T17:26:33.738Z,2.77
2018-06-19T17:29:02.225Z,2.60
2018-06-19T17:31:30.763Z,2.50
2018-06-19T17:33:59.289Z,2.87
2018-06-19T17:36:27.801Z,2.50
2018-06-19T17:38:56.317Z,2.77
2018-06-19T17:41:24.821Z,3.17
2018-06-19T17:43:53.370Z,3.40
2018-06-19T17:46:21.881Z,5.07
2018-06-19T17:48:50.397Z,3.07
2018-06-19T17:51:18.896Z,4.33
2018-06-19T17:53:47.425Z,2.40
2018-06-19T17:56:15.909Z,3.17
2018-06-19T17:58:44.601Z,3.63
2018-06-19T18:01:13.177Z,2.40
2018-06-19T18:03:41.725Z,3.27
2018-06-19T18:06:10.225Z,2.97
2018-06-19T18:08:38.736Z,3.50
2018-06-19T18:11:07.217Z,4.27
2018-06-19T18:13:35.725Z,2.37
2018-06-19T18:16:04.241Z,3.00
2018-06-19T18:18:32.802Z,2.33
2018-06-19T18:21:01.379Z,3.27
2018-06-19T18:23:29.889Z,3.27
2018-06-19T18:25:58.391Z,3.53
2018-06-19T18:28:26.909Z,5.10
2018-06-19T18:30:55.485Z,3.17
2018-06-19T18:33:24.150Z,3.77
2018-06-19T18:35:52.729Z,2.73
2018-06-19T18:38:21.307Z,3.20
2018-06-19T18:40:49.846Z,4.07
2018-06-19T18:43:18.402Z,3.17
2018-06-19T18:45:47.121Z,3.10
2018-06-19T18:48:16.158Z,3.60
2018-06-19T18:50:45.064Z,2.60
2018-06-19T18:53:13.729Z,2.83
2018-06-19T18:55:49.112Z,3.53
2018-06-19T18:58:19.493Z,3.07
2018-06-19T19:00:49.429Z,3.37
2018-06-19T19:03:18.320Z,3.70
2018-06-19T19:05:56.142Z,4.80
2018-06-19T19:08:26.473Z,2.73
2018-06-19T19:10:56.338Z,3.50
2018-06-19T19:13:26.038Z,2.70
2018-06-19T19:16:00.085Z,2.70
2018-06-19T19:18:36.786Z,5.07
2018-06-19T19:24:04.960Z,2.67
2018-06-19T19:29:23.860Z,3.77
2018-06-19T19:31:54.996Z,2.53
2018-06-19T19:34:41.878Z,3.10
2018-06-19T19:37:29.217Z,3.97
2018-06-19T19:40:02.013Z,2.73
2018-06-19T19:42:36.961Z,3.53
2018-06-19T19:47:51.911Z,2.90
2018-06-19T19:50:21.413Z,2.70
2018-06-19T19:52:51.126Z,4.13
2018-06-19T19:55:20.283Z,3.20
2018-06-19T19:57:56.426Z,3.93
2018-06-19T20:00:25.369Z,3.37
2018-06-19T20:03:01.234Z,3.27
2018-06-19T20:05:30.465Z,4.83
2018-06-19T20:07:59.161Z,4.20
2018-06-19T20:10:28.065Z,4.27
2018-06-19T20:13:11.038Z,4.10
2018-06-19T20:15:39.992Z,4.07
2018-06-19T20:18:15.106Z,4.73
2018-06-19T20:20:48.430Z,4.20
2018-06-19T20:23:42.281Z,3.43
2018-06-19T20:26:19.438Z,5.73
2018-06-19T20:28:48.286Z,3.07
2018-06-19T20:31:16.846Z,4.60
2018-06-19T20:33:45.365Z,3.50
2018-06-19T20:36:13.897Z,6.00
2018-06-19T20:38:42.405Z,3.70
2018-06-19T20:41:10.914Z,5.17
2018-06-19T20:43:39.602Z,4.43
2018-06-19T20:46:08.153Z,4.20
2018-06-19T20:48:37.541Z,3.30
2018-06-19T20:51:06.174Z,3.50
2018-06-19T20:53:34.701Z,4.40
2018-06-19T20:56:03.261Z,4.87
2018-06-19T20:59:09.685Z,4.30
2018-06-19T21:01:49.730Z,4.43
2018-06-19T21:04:22.719Z,3.90
2018-06-19T21:06:53.688Z,4.03
2018-06-19T21:09:25.586Z,4.57
2018-06-19T21:11:58.227Z,5.07
2018-06-19T21:14:28.028Z,4.27
2018-06-19T21:17:10.782Z,3.67
2018-06-19T21:19:39.974Z,4.90
2018-06-19T21:22:09.444Z,4.13
2018-06-19T21:24:38.949Z,5.13
2018-06-19T21:27:10.992Z,4.03
2018-06-19T21:29:44.660Z,4.20
2018-06-19T21:32:13.213Z,4.83
2018-06-19T21:34:41.721Z,5.90
2018-06-19T21:37:10.257Z,5.23
2018-06-19T21:39:38.789Z,5.97
2018-06-19T21:42:07.293Z,5.93
2018-06-19T21:44:35.805Z,5.90
2018-06-19T21:47:04.331Z,5.17
2018-06-19T21:49:32.838Z,5.60
2018-06-19T21:52:01.365Z,3.80
2018-06-19T21:54:29.889Z,4.00
2018-06-19T21:56:58.525Z,4.40
2018-06-19T21:59:27.054Z,5.93
2018-06-19T22:01:55.574Z,5.33
2018-06-19T22:04:24.905Z,4.30
2018-06-19T22:06:54.663Z,4.20
2018-06-19T22:09:23.677Z,5.30
2018-06-19T22:11:55.990Z,6.00
2018-06-19T22:14:25.727Z,4.93
2018-06-19T22:16:58.865Z,4.50
2018-06-19T22:19:28.628Z,4.33
2018-06-19T22:21:58.120Z,4.97
2018-06-19T22:24:26.658Z,4.10
2018-06-19T22:26:55.145Z,5.33
2018-06-19T22:29:23.645Z,4.23
2018-06-19T22:31:52.189Z,4.13
2018-06-19T22:34:20.686Z,4.03
2018-06-19T22:36:49.257Z,4.90
2018-06-19T22:39:17.781Z,4.97
2018-06-19T22:41:46.285Z,4.93
2018-06-19T22:44:14.813Z,4.80
2018-06-19T22:46:43.346Z,3.93
2018-06-19T22:49:11.929Z,5.30
2018-06-19T22:51:40.436Z,3.63
2018-06-19T22:54:08.977Z,4.00
2018-06-19T22:56:37.537Z,3.87
2018-06-19T22:59:06.037Z,6.27
2018-06-19T23:01:35.196Z,4.77
2018-06-19T23:04:04.360Z,6.53
2018-06-19T23:06:33.533Z,4.07
2018-06-19T23:09:02.575Z,4.77
2018-06-19T23:11:31.736Z,4.50
2018-06-19T23:14:00.892Z,4.63
2018-06-19T23:16:29.943Z,4.60
2018-06-19T23:18:58.982Z,4.70
2018-06-19T23:21:28.141Z,4.33
2018-06-19T23:23:58.265Z,3.60
2018-06-19T23:26:27.430Z,4.47
2018-06-19T23:28:56.478Z,5.30
2018-06-19T23:31:25.515Z,3.90
2018-06-19T23:33:55.037Z,4.23
2018-06-19T23:36:26.721Z,4.07
2018-06-19T23:38:55.767Z,4.40
2018-06-19T23:41:24.696Z,4.27
2018-06-19T23:43:53.499Z,4.13
2018-06-19T23:46:26.852Z,4.07
2018-06-19T23:48:56.262Z,4.07
2018-06-19T23:51:26.380Z,3.93
2018-06-19T23:53:55.431Z,4.43
2018-06-19T23:56:24.351Z,5.73
2018-06-19T23:58:54.116Z,5.40
